createdAt,value
2022-08-18T00:01:52.439Z,47.15
2022-08-18T00:04:34.828Z,39.90
2022-08-18T00:07:05.155Z,44.42
2022-08-18T00:09:33.126Z,39.65
2022-08-18T00:12:03.135Z,44.00
2022-08-18T00:14:33.075Z,40.40
2022-08-18T00:17:01.922Z,43.22
2022-08-18T00:19:46.638Z,43.13
2022-08-18T00:22:18.439Z,47.83
2022-08-18T00:24:49.658Z,57.10
2022-08-18T00:27:21.956Z,60.70
2022-08-18T00:29:54.048Z,59.45
2022-08-18T00:32:23.514Z,63.72
2022-08-18T00:34:51.639Z,63.38
2022-08-18T00:37:19.400Z,62.47
2022-08-18T00:39:48.083Z,63.92
2022-08-18T00:42:27.047Z,61.95
2022-08-18T00:45:02.889Z,61.85
2022-08-18T00:47:42.879Z,64.38
2022-08-18T00:50:15.460Z,62.75
2022-08-18T00:52:50.688Z,64.55
2022-08-18T00:55:19.899Z,64.73
2022-08-18T00:57:48.874Z,64.07
2022-08-18T01:00:18.182Z,64.68
2022-08-18T01:02:50.611Z,65.88
2022-08-18T01:05:24.015Z,70.50
2022-08-18T01:07:52.705Z,71.75
2022-08-18T01:10:22.867Z,72.50
2022-08-18T01:12:52.270Z,73.40
2022-08-18T01:15:28.719Z,71.43
2022-08-18T01:18:15.411Z,66.38
2022-08-18T01:21:06.897Z,65.43
2022-08-18T01:23:41.560Z,64.68
2022-08-18T01:26:09.550Z,57.95
2022-08-18T01:28:40.631Z,61.72
2022-08-18T01:31:09.937Z,56.65
2022-08-18T01:33:39.726Z,57.53
2022-08-18T01:36:14.805Z,56.25
2022-08-18T01:38:44.442Z,60.10
2022-08-18T01:41:27.054Z,63.47
2022-08-18T01:43:59.058Z,66.70
2022-08-18T01:46:27.727Z,68.85
2022-08-18T01:48:55.910Z,65.57
2022-08-18T01:51:40.428Z,66.63
2022-08-18T01:54:12.132Z,68.25
2022-08-18T01:56:40.942Z,67.18
2022-08-18T01:59:15.276Z,68.03
2022-08-18T02:01:50.704Z,71.53
2022-08-18T02:04:34.952Z,68.22
2022-08-18T02:07:06.104Z,68.20
2022-08-18T02:09:37.915Z,66.60
2022-08-18T02:12:07.256Z,67.05
2022-08-18T02:14:36.547Z,63.47
2022-08-18T02:17:06.317Z,60.90
2022-08-18T02:19:35.302Z,65.65
2022-08-18T02:22:03.819Z,64.97
2022-08-18T02:24:32.421Z,63.13
2022-08-18T02:27:01.710Z,60.78
2022-08-18T02:29:29.515Z,58.50
2022-08-18T02:31:57.181Z,61.80
2022-08-18T02:34:25.466Z,63.05
2022-08-18T02:36:53.235Z,64.20
2022-08-18T02:39:20.979Z,64.70
2022-08-18T02:41:48.881Z,63.57
2022-08-18T02:44:18.001Z,62.75
2022-08-18T02:46:46.408Z,59.92
2022-08-18T02:49:14.093Z,62.28
2022-08-18T02:51:41.931Z,62.30
2022-08-18T02:54:11.607Z,60.20
2022-08-18T02:56:41.640Z,59.00
2022-08-18T02:59:13.419Z,60.20
2022-08-18T03:01:46.380Z,57.72
2022-08-18T03:04:16.684Z,57.47
2022-08-18T03:06:46.408Z,56.25
2022-08-18T03:09:16.118Z,58.08
2022-08-18T03:11:43.909Z,58.35
2022-08-18T03:14:12.547Z,57.87
2022-08-18T03:16:54.441Z,59.08
2022-08-18T03:19:23.617Z,60.88
2022-08-18T03:21:52.465Z,60.35
2022-08-18T03:24:22.388Z,60.55
2022-08-18T03:26:52.877Z,61.22
2022-08-18T03:29:21.283Z,62.50
2022-08-18T03:31:51.020Z,62.92
2022-08-18T03:34:21.135Z,61.17
2022-08-18T03:36:49.858Z,64.97
2022-08-18T03:39:18.662Z,69.13
2022-08-18T03:41:59.658Z,67.72
2022-08-18T03:44:30.464Z,72.18
2022-08-18T03:47:00.164Z,70.63
2022-08-18T03:49:28.078Z,67.53
2022-08-18T03:52:01.160Z,66.00
2022-08-18T03:54:29.794Z,62.22
2022-08-18T03:56:57.764Z,65.47
2022-08-18T03:59:27.295Z,64.18
2022-08-18T04:01:56.334Z,67.43
2022-08-18T04:04:29.314Z,67.13
2022-08-18T04:06:59.274Z,62.90
2022-08-18T04:09:29.327Z,64.38
2022-08-18T04:11:57.727Z,66.80
2022-08-18T04:14:28.873Z,63.90
2022-08-18T04:16:56.683Z,65.88
2022-08-18T04:19:27.987Z,63.58
2022-08-18T04:21:57.438Z,63.72
2022-08-18T04:24:26.652Z,64.35
2022-08-18T04:26:58.057Z,62.40
2022-08-18T04:29:26.130Z,62.65
2022-08-18T04:31:53.977Z,64.78
2022-08-18T04:34:22.970Z,62.85
2022-08-18T04:36:54.594Z,62.95
2022-08-18T04:39:23.562Z,62.55
2022-08-18T04:41:51.639Z,60.22
2022-08-18T04:44:20.399Z,61.13
2022-08-18T04:46:50.305Z,63.35
2022-08-18T04:49:19.148Z,59.97
2022-08-18T04:52:36.565Z,62.42
2022-08-18T04:54:58.153Z,62.90
2022-08-18T04:57:26.854Z,64.25
2022-08-18T04:59:54.486Z,64.70
2022-08-18T05:02:22.616Z,63.40
2022-08-18T05:04:52.231Z,66.43
2022-08-18T05:07:23.544Z,65.20
2022-08-18T05:09:51.920Z,66.25
2022-08-18T05:12:25.952Z,65.43
2022-08-18T05:14:56.890Z,62.80
2022-08-18T05:17:30.367Z,65.40
2022-08-18T05:20:01.414Z,63.97
2022-08-18T05:22:31.711Z,64.67
2022-08-18T05:25:00.147Z,65.75
2022-08-18T05:27:35.169Z,64.28
2022-08-18T05:30:03.782Z,63.88
2022-08-18T05:32:47.561Z,64.22
2022-08-18T05:35:22.675Z,62.83
2022-08-18T05:38:02.046Z,62.28
2022-08-18T05:40:31.011Z,62.25
2022-08-18T05:43:00.694Z,60.03
2022-08-18T05:45:29.018Z,60.90
2022-08-18T05:48:00.101Z,60.30
2022-08-18T05:50:29.823Z,60.20
2022-08-18T05:52:59.178Z,60.08
2022-08-18T05:55:49.928Z,59.58
2022-08-18T05:58:21.344Z,62.10
2022-08-18T06:00:59.740Z,65.28
2022-08-18T06:03:31.544Z,65.03
2022-08-18T06:06:16.921Z,64.05
2022-08-18T06:08:48.696Z,65.22
2022-08-18T06:11:22.331Z,64.37
2022-08-18T06:13:54.198Z,65.00
2022-08-18T06:16:35.255Z,65.25
2022-08-18T06:19:05.273Z,64.63
2022-08-18T06:21:40.767Z,62.47
2022-08-18T06:24:19.067Z,63.25
2022-08-18T06:26:52.596Z,62.80
2022-08-18T06:29:42.189Z,61.97
2022-08-18T06:32:19.030Z,62.22
2022-08-18T06:34:57.009Z,60.00
2022-08-18T06:37:30.413Z,61.55
2022-08-18T06:39:59.655Z,59.42
2022-08-18T06:42:30.600Z,58.47
2022-08-18T06:45:02.306Z,58.30
2022-08-18T06:47:37.615Z,58.10
2022-08-18T06:50:08.296Z,58.45
2022-08-18T06:52:38.306Z,57.17
2022-08-18T06:55:09.053Z,58.78
2022-08-18T06:57:38.606Z,56.53
2022-08-18T07:00:11.520Z,57.00
2022-08-18T07:02:51.986Z,58.20
2022-08-18T07:05:25.636Z,56.80
2022-08-18T07:08:07.833Z,55.42
2022-08-18T07:10:38.378Z,54.67
2022-08-18T07:13:17.785Z,55.33
2022-08-18T07:15:48.191Z,54.85
2022-08-18T07:18:23.307Z,53.75
2022-08-18T07:20:54.655Z,52.00
2022-08-18T07:23:27.455Z,53.33
2022-08-18T07:26:03.225Z,54.42
2022-08-18T07:28:33.869Z,52.58
2022-08-18T07:31:18.829Z,52.03
2022-08-18T07:33:53.127Z,48.80
2022-08-18T07:36:21.763Z,49.47
2022-08-18T07:38:52.745Z,49.88
2022-08-18T07:41:26.269Z,50.83
2022-08-18T07:44:16.469Z,52.40
2022-08-18T07:46:51.941Z,48.78
2022-08-18T07:49:22.667Z,49.47
2022-08-18T07:51:54.034Z,49.58
2022-08-18T07:54:51.120Z,49.03
2022-08-18T07:57:26.480Z,49.15
2022-08-18T07:59:59.955Z,50.47
2022-08-18T08:02:37.603Z,48.70
2022-08-18T08:05:11.400Z,46.78
2022-08-18T08:07:42.937Z,43.72
2022-08-18T08:10:26.072Z,41.58
2022-08-18T08:13:09.097Z,37.05
2022-08-18T08:15:46.734Z,26.27
2022-08-18T08:18:20.069Z,25.17
2022-08-18T08:20:50.935Z,23.35
2022-08-18T08:23:27.435Z,23.48
2022-08-18T08:26:08.089Z,22.05
2022-08-18T08:28:42.565Z,21.77
2022-08-18T08:34:55.263Z,20.13
2022-08-18T08:37:29.532Z,20.55
2022-08-18T08:39:59.171Z,20.65
2022-08-18T08:42:36.348Z,20.52
2022-08-18T08:45:10.640Z,19.77
2022-08-18T08:47:43.837Z,19.88
2022-08-18T08:50:16.124Z,20.00
2022-08-18T08:52:48.095Z,19.05
2022-08-18T08:55:19.258Z,20.25
2022-08-18T08:57:51.441Z,19.52
2022-08-18T09:00:19.691Z,19.60
2022-08-18T09:03:11.372Z,19.15
2022-08-18T09:09:43.038Z,19.15
2022-08-18T09:12:19.972Z,18.58
2022-08-18T09:15:25.199Z,18.20
2022-08-18T09:18:05.928Z,17.85
2022-08-18T09:20:49.761Z,17.23
2022-08-18T09:23:21.091Z,16.77
2022-08-18T09:25:52.607Z,17.85
2022-08-18T09:28:23.347Z,17.73
2022-08-18T09:31:10.793Z,18.65
2022-08-18T09:34:17.271Z,16.92
2022-08-18T09:40:12.581Z,15.52
2022-08-18T09:42:55.890Z,16.02
2022-08-18T09:45:55.305Z,15.70
2022-08-18T09:48:30.570Z,14.88
2022-08-18T09:51:23.519Z,15.07
2022-08-18T09:54:14.371Z,15.68
2022-08-18T09:57:23.605Z,15.13
2022-08-18T09:59:59.317Z,13.77
2022-08-18T10:03:04.297Z,12.90
2022-08-18T10:05:32.560Z,13.68
2022-08-18T10:08:35.877Z,12.70
2022-08-18T10:11:20.623Z,13.05
2022-08-18T10:14:05.723Z,12.60
2022-08-18T10:17:12.944Z,13.70
2022-08-18T10:19:40.163Z,13.40
2022-08-18T10:22:09.627Z,13.55
2022-08-18T10:24:41.482Z,12.55
2022-08-18T10:27:29.618Z,12.13
2022-08-18T10:29:58.653Z,14.60
2022-08-18T10:35:58.983Z,11.25
2022-08-18T10:38:46.107Z,9.75
2022-08-18T10:41:31.437Z,9.63
2022-08-18T10:44:00.578Z,9.48
2022-08-18T10:46:34.410Z,9.93
2022-08-18T10:49:18.324Z,9.40
2022-08-18T10:52:00.950Z,10.05
2022-08-18T10:58:05.819Z,10.13
2022-08-18T11:00:45.201Z,9.97
2022-08-18T11:03:50.735Z,9.23
2022-08-18T11:09:02.845Z,9.30
2022-08-18T11:14:44.277Z,7.80
2022-08-18T11:17:18.539Z,8.45
2022-08-18T11:19:50.641Z,7.57
2022-08-18T11:22:31.141Z,7.75
2022-08-18T11:25:01.008Z,9.90
2022-08-18T11:27:32.860Z,8.68
2022-08-18T11:30:02.198Z,8.40
2022-08-18T11:35:25.967Z,10.27
2022-08-18T11:37:59.895Z,6.70
2022-08-18T11:43:29.429Z,7.22
2022-08-18T11:46:00.229Z,6.78
2022-08-18T11:48:50.992Z,7.00
2022-08-18T11:51:23.685Z,6.90
2022-08-18T11:56:45.258Z,6.70
2022-08-18T11:59:52.245Z,6.57
2022-08-18T12:02:22.430Z,7.50
2022-08-18T12:04:53.671Z,5.90
2022-08-18T12:07:28.815Z,13.80
2022-08-18T12:10:19.025Z,6.78
2022-08-18T12:12:51.757Z,8.20
2022-08-18T12:15:44.188Z,26.13
2022-08-18T12:18:18.682Z,5.77
2022-08-18T12:20:55.165Z,5.13
2022-08-18T12:23:23.153Z,6.03
2022-08-18T12:25:52.881Z,4.50
2022-08-18T12:28:22.451Z,4.30
2022-08-18T12:30:57.008Z,4.80
2022-08-18T12:33:34.608Z,4.82
2022-08-18T12:36:15.786Z,4.60
2022-08-18T12:38:52.193Z,4.63
2022-08-18T12:41:26.502Z,5.20
2022-08-18T12:46:42.946Z,5.70
2022-08-18T12:49:16.236Z,5.57
2022-08-18T12:51:44.052Z,5.43
2022-08-18T12:54:12.805Z,5.55
2022-08-18T12:56:42.985Z,5.57
2022-08-18T12:59:11.979Z,5.73
2022-08-18T13:01:41.124Z,5.93
2022-08-18T13:07:04.766Z,6.47
2022-08-18T13:09:53.106Z,5.68
2022-08-18T13:13:24.988Z,6.05
2022-08-18T13:16:01.501Z,6.27
2022-08-18T13:18:31.403Z,6.07
2022-08-18T13:21:00.281Z,5.70
2022-08-18T13:23:29.109Z,5.18
2022-08-18T13:26:01.364Z,5.10
2022-08-18T13:28:35.797Z,5.85
2022-08-18T13:31:23.427Z,5.10
2022-08-18T13:33:57.482Z,5.40
2022-08-18T13:36:44.309Z,5.00
2022-08-18T13:39:16.447Z,4.70
2022-08-18T13:41:48.767Z,5.93
2022-08-18T13:44:19.690Z,5.50
2022-08-18T13:47:52.062Z,4.85
2022-08-18T13:50:29.744Z,4.50
2022-08-18T13:53:01.107Z,7.90
2022-08-18T13:55:29.978Z,5.40
2022-08-18T13:57:58.016Z,6.85
2022-08-18T14:00:31.214Z,3.72
2022-08-18T14:03:03.435Z,4.10
2022-08-18T14:05:50.811Z,3.53
2022-08-18T14:08:20.769Z,4.30
2022-08-18T14:10:50.962Z,4.28
2022-08-18T14:13:24.304Z,3.70
2022-08-18T14:15:56.475Z,3.90
2022-08-18T14:18:31.154Z,4.38
2022-08-18T14:21:23.003Z,4.20
2022-08-18T14:24:14.336Z,5.03
2022-08-18T14:26:50.036Z,5.05
2022-08-18T14:29:46.829Z,4.60
2022-08-18T14:32:06.678Z,4.15
2022-08-18T14:34:35.122Z,4.80
2022-08-18T14:37:05.360Z,5.22
2022-08-18T14:39:38.800Z,6.65
2022-08-18T14:42:10.204Z,5.00
2022-08-18T14:44:41.598Z,5.32
2022-08-18T14:47:13.728Z,5.25
2022-08-18T14:49:52.321Z,4.63
2022-08-18T14:52:27.630Z,5.10
2022-08-18T14:54:56.536Z,5.05
2022-08-18T14:57:25.696Z,4.80
2022-08-18T14:59:53.584Z,4.50
2022-08-18T15:02:26.283Z,6.47
2022-08-18T15:04:56.234Z,4.10
2022-08-18T15:07:27.504Z,2.83
2022-08-18T15:10:15.252Z,3.25
2022-08-18T15:12:44.543Z,3.13
2022-08-18T15:15:18.131Z,2.80
2022-08-18T15:17:52.406Z,3.05
2022-08-18T15:20:23.827Z,3.38
2022-08-18T15:23:18.243Z,3.80
2022-08-18T15:25:52.464Z,3.17
2022-08-18T15:28:23.722Z,3.25
2022-08-18T15:33:42.391Z,3.60
2022-08-18T15:36:16.257Z,3.70
2022-08-18T15:38:46.228Z,3.20
2022-08-18T15:41:33.990Z,2.93
2022-08-18T15:44:03.561Z,3.07
2022-08-18T15:46:33.616Z,3.33
2022-08-18T15:49:05.136Z,3.10
2022-08-18T15:51:35.471Z,2.72
2022-08-18T15:54:11.411Z,3.23
2022-08-18T15:56:39.433Z,2.55
2022-08-18T15:59:11.042Z,2.63
2022-08-18T16:01:43.485Z,2.28
2022-08-18T16:04:12.657Z,2.42
2022-08-18T16:06:45.126Z,2.33
2022-08-18T16:09:15.396Z,2.40
2022-08-18T16:11:43.412Z,2.10
2022-08-18T16:14:11.036Z,2.60
2022-08-18T16:16:38.836Z,2.50
2022-08-18T16:19:07.979Z,2.47
2022-08-18T16:21:39.619Z,2.38
2022-08-18T16:24:08.292Z,2.42
2022-08-18T16:26:37.513Z,2.38
2022-08-18T16:29:05.556Z,2.50
2022-08-18T16:31:33.651Z,2.50
2022-08-18T16:34:02.231Z,1.80
2022-08-18T16:36:29.989Z,2.33
2022-08-18T16:38:58.340Z,2.17
2022-08-18T16:41:27.330Z,3.40
2022-08-18T16:43:56.539Z,2.08
2022-08-18T16:46:26.622Z,2.00
2022-08-18T16:48:54.998Z,2.20
2022-08-18T16:51:25.260Z,2.60
2022-08-18T16:53:54.440Z,2.40
2022-08-18T16:56:24.033Z,2.35
2022-08-18T16:59:10.468Z,2.10
2022-08-18T17:01:57.218Z,2.17
2022-08-18T17:04:28.648Z,1.63
2022-08-18T17:06:57.659Z,1.92
2022-08-18T17:09:27.943Z,1.98
2022-08-18T17:11:56.107Z,2.03
2022-08-18T17:14:27.689Z,1.80
2022-08-18T17:16:58.681Z,2.03
2022-08-18T17:19:30.227Z,1.63
2022-08-18T17:21:58.584Z,1.95
2022-08-18T17:24:31.703Z,1.60
2022-08-18T17:27:22.357Z,1.80
2022-08-18T17:30:00.427Z,1.70
2022-08-18T17:35:09.418Z,1.88
2022-08-18T17:37:37.971Z,1.73
2022-08-18T17:40:08.616Z,2.15
2022-08-18T17:42:40.102Z,1.90
2022-08-18T17:45:13.742Z,2.20
2022-08-18T17:47:56.379Z,1.80
2022-08-18T17:50:45.786Z,2.08
2022-08-18T17:53:15.537Z,1.83
2022-08-18T17:55:46.399Z,1.98
2022-08-18T17:58:20.534Z,1.90
2022-08-18T18:00:48.216Z,2.05
2022-08-18T18:03:17.480Z,2.15
2022-08-18T18:05:52.712Z,2.13
2022-08-18T18:08:20.896Z,2.10
2022-08-18T18:11:04.000Z,2.50
2022-08-18T18:13:35.179Z,2.35
2022-08-18T18:16:21.902Z,2.50
2022-08-18T18:18:59.968Z,2.80
2022-08-18T18:22:00.136Z,2.50
2022-08-18T18:24:24.146Z,2.67
2022-08-18T18:26:52.523Z,2.60
2022-08-18T18:29:28.911Z,2.92
2022-08-18T18:32:01.623Z,2.70
2022-08-18T18:34:39.147Z,2.60
2022-08-18T18:37:25.903Z,2.40
2022-08-18T18:39:58.349Z,2.45
2022-08-18T18:42:29.230Z,2.50
2022-08-18T18:45:00.436Z,2.40
2022-08-18T18:47:49.409Z,2.20
2022-08-18T18:50:28.189Z,2.50
2022-08-18T18:53:11.243Z,2.50
2022-08-18T18:55:44.995Z,2.42
2022-08-18T18:58:22.805Z,2.80
2022-08-18T19:00:54.209Z,2.70
2022-08-18T19:03:27.475Z,2.60
2022-08-18T19:06:06.883Z,3.00
2022-08-18T19:08:39.764Z,3.50
2022-08-18T19:11:15.227Z,3.20
2022-08-18T19:13:47.239Z,2.70
2022-08-18T19:16:26.584Z,2.72
2022-08-18T19:19:37.649Z,2.88
2022-08-18T19:22:05.805Z,3.08
2022-08-18T19:24:38.978Z,3.22
2022-08-18T19:27:12.444Z,3.75
2022-08-18T19:29:43.876Z,3.50
2022-08-18T19:32:16.825Z,3.35
2022-08-18T19:34:52.701Z,3.40
2022-08-18T19:37:32.292Z,3.30
2022-08-18T19:40:04.530Z,3.22
2022-08-18T19:42:37.505Z,2.88
2022-08-18T19:45:16.742Z,3.05
2022-08-18T19:47:50.011Z,2.78
2022-08-18T19:50:35.677Z,3.00
2022-08-18T19:53:20.857Z,2.60
2022-08-18T19:56:03.287Z,2.33
2022-08-18T19:59:15.458Z,2.50
2022-08-18T20:01:53.651Z,3.00
2022-08-18T20:04:28.635Z,3.10
2022-08-18T20:07:25.208Z,2.65
2022-08-18T20:10:14.941Z,2.50
2022-08-18T20:12:57.740Z,3.00
2022-08-18T20:15:28.507Z,3.37
2022-08-18T20:18:02.994Z,3.25
2022-08-18T20:20:32.025Z,3.15
2022-08-18T20:23:01.051Z,2.80
2022-08-18T20:25:40.759Z,3.17
2022-08-18T20:28:33.419Z,3.20
2022-08-18T20:31:12.626Z,2.85
2022-08-18T20:33:46.247Z,3.38
2022-08-18T20:36:31.336Z,3.58
2022-08-18T20:39:01.221Z,3.42
2022-08-18T20:41:41.418Z,3.63
2022-08-18T20:44:57.358Z,3.75
2022-08-18T20:47:47.374Z,3.83
2022-08-18T20:50:44.091Z,3.40
2022-08-18T20:53:19.014Z,4.70
2022-08-18T20:55:56.356Z,4.50
2022-08-18T20:58:32.627Z,4.57
2022-08-18T21:01:01.994Z,4.80
2022-08-18T21:03:37.533Z,4.75
2022-08-18T21:06:06.281Z,3.70
2022-08-18T21:08:36.798Z,4.53
2022-08-18T21:11:08.144Z,3.60
2022-08-18T21:13:40.694Z,4.35
2022-08-18T21:16:09.743Z,4.60
2022-08-18T21:18:38.445Z,4.50
2022-08-18T21:21:26.673Z,3.53
2022-08-18T21:23:58.037Z,3.00
2022-08-18T21:26:27.287Z,3.17
2022-08-18T21:28:59.266Z,4.93
2022-08-18T21:31:44.213Z,5.80
2022-08-18T21:34:18.267Z,4.00
2022-08-18T21:36:53.629Z,4.03
2022-08-18T21:39:24.420Z,3.67
2022-08-18T21:41:54.384Z,3.53
2022-08-18T21:44:25.188Z,6.20
2022-08-18T21:47:05.781Z,6.45
2022-08-18T21:49:34.983Z,5.00
2022-08-18T21:52:02.963Z,4.28
2022-08-18T21:54:34.357Z,4.13
2022-08-18T21:57:23.111Z,6.30
2022-08-18T22:00:25.687Z,6.45
2022-08-18T22:03:11.544Z,3.85
2022-08-18T22:05:59.118Z,3.70
2022-08-18T22:08:29.638Z,4.10
2022-08-18T22:12:01.552Z,3.58
2022-08-18T22:14:53.975Z,4.20
2022-08-18T22:17:31.592Z,5.20
2022-08-18T22:20:39.296Z,4.60
2022-08-18T22:23:39.581Z,5.53
2022-08-18T22:26:12.364Z,6.57
2022-08-18T22:28:51.110Z,5.13
2022-08-18T22:31:21.248Z,5.03
2022-08-18T22:33:51.234Z,4.53
2022-08-18T22:36:21.500Z,6.55
2022-08-18T22:38:49.483Z,5.70
2022-08-18T22:41:18.479Z,6.82
2022-08-18T22:43:46.123Z,7.00
2022-08-18T22:46:24.114Z,6.30
2022-08-18T22:48:55.938Z,5.30
2022-08-18T22:51:25.186Z,4.93
2022-08-18T22:54:06.280Z,7.18
2022-08-18T22:56:35.736Z,6.93
2022-08-18T22:59:14.046Z,6.75
2022-08-18T23:01:46.045Z,6.53
2022-08-18T23:04:16.882Z,5.47
2022-08-18T23:06:51.575Z,6.43
2022-08-18T23:09:21.963Z,5.25
2022-08-18T23:15:43.810Z,7.57
2022-08-18T23:18:12.237Z,7.88
2022-08-18T23:20:41.453Z,6.78
2022-08-18T23:23:09.859Z,6.25
2022-08-18T23:25:37.980Z,7.88
2022-08-18T23:28:10.625Z,8.93
2022-08-18T23:30:40.959Z,7.93
2022-08-18T23:33:10.338Z,5.50
2022-08-18T23:35:38.352Z,5.78
2022-08-18T23:38:08.759Z,6.15
2022-08-18T23:40:38.296Z,7.43
2022-08-18T23:43:06.908Z,6.88
2022-08-18T23:45:36.446Z,6.67
2022-08-18T23:48:04.561Z,6.32
2022-08-18T23:50:32.826Z,7.33
2022-08-18T23:53:02.781Z,8.77
2022-08-18T23:55:33.897Z,9.55
2022-08-18T23:58:01.539Z,10.25
